UAL92 EHAM-EBLG
Flight info
| Callsign | UAL92 |
|---|---|
| Flight time | 0h 32m |
| Altitude | 17000 |
| Route | WOODY N872 NIK |
| Aircraft | A346/H-SDE2E3FGHIJ3J4J5M1RWXY/LB1D1 |
Departure
| Time | 2026-04-30 21:31 |
|---|---|
| Airport | Amsterdam Airport Schiphol (EHAM) |
Arrival
| Time | 2026-04-30 22:03 |
|---|---|
| Airport | Liège Airport (EBLG) |
| Time | Latitude | Longitude | Altitude | Speed | Heading |
|---|---|---|---|---|---|
| 2026-04-30 21:02 | 52.31285 | 4.75572 | 11 ft | 0 kts | 86° |
| 2026-04-30 21:18 | 52.31284 | 4.75551 | 11 ft | 2 kts | 77° |
| 2026-04-30 21:18 | 52.31279 | 4.75527 | 11 ft | 2 kts | 63° |
| 2026-04-30 21:18 | 52.31271 | 4.75507 | 11 ft | 2 kts | 52° |
| 2026-04-30 21:18 | 52.31261 | 4.75489 | 11 ft | 2 kts | 40° |
| 2026-04-30 21:19 | 52.31249 | 4.75474 | 11 ft | 2 kts | 28° |
| 2026-04-30 21:19 | 52.31235 | 4.75464 | 10 ft | 2 kts | 17° |
| 2026-04-30 21:19 | 52.31220 | 4.75459 | 10 ft | 2 kts | 5° |
| 2026-04-30 21:19 | 52.31205 | 4.75459 | 10 ft | 2 kts | 355° |
| 2026-04-30 21:20 | 52.31193 | 4.75460 | 10 ft | 0 kts | 354° |
| 2026-04-30 21:20 | 52.31193 | 4.75461 | 10 ft | 0 kts | 354° |
| 2026-04-30 21:22 | 52.31195 | 4.75460 | 10 ft | 1 kts | 354° |
| 2026-04-30 21:22 | 52.31306 | 4.75450 | 10 ft | 8 kts | 357° |
| 2026-04-30 21:23 | 52.31376 | 4.75443 | 10 ft | 10 kts | 357° |
| 2026-04-30 21:23 | 52.31447 | 4.75437 | 10 ft | 8 kts | 357° |
| 2026-04-30 21:23 | 52.31499 | 4.75461 | 10 ft | 3 kts | 53° |
| 2026-04-30 21:24 | 52.31511 | 4.75513 | 11 ft | 8 kts | 76° |
| 2026-04-30 21:24 | 52.31520 | 4.75666 | 11 ft | 14 kts | 87° |
| 2026-04-30 21:24 | 52.31527 | 4.75852 | 7 ft | 17 kts | 87° |
| 2026-04-30 21:24 | 52.31534 | 4.76051 | 6 ft | 17 kts | 87° |
| 2026-04-30 21:25 | 52.31548 | 4.76459 | 6 ft | 17 kts | 86° |
| 2026-04-30 21:25 | 52.31555 | 4.76656 | 7 ft | 17 kts | 87° |
| 2026-04-30 21:25 | 52.31561 | 4.76854 | 7 ft | 17 kts | 87° |
| 2026-04-30 21:26 | 52.31573 | 4.77228 | 10 ft | 16 kts | 87° |
| 2026-04-30 21:26 | 52.31614 | 4.77396 | 9 ft | 16 kts | 57° |
| 2026-04-30 21:27 | 52.31770 | 4.77693 | 4 ft | 17 kts | 6° |
| 2026-04-30 21:27 | 52.31881 | 4.77702 | 4 ft | 15 kts | 3° |
| 2026-04-30 21:27 | 52.31988 | 4.77724 | 3 ft | 16 kts | 21° |
| 2026-04-30 21:28 | 52.32113 | 4.77891 | 2 ft | 7 kts | 67° |
| 2026-04-30 21:28 | 52.32118 | 4.77960 | 3 ft | 2 kts | 90° |
| 2026-04-30 21:28 | 52.32094 | 4.78013 | 3 ft | 4 kts | 169° |
| 2026-04-30 21:29 | 52.32073 | 4.78012 | 3 ft | 3 kts | 184° |
| 2026-04-30 21:29 | 52.30150 | 4.77833 | 5 ft | 172 kts | 183° |
| 2026-04-30 21:30 | 52.27514 | 4.77578 | 589 ft | 197 kts | 177° |
| 2026-04-30 21:31 | 52.23722 | 4.79274 | 2150 ft | 190 kts | 155° |
| 2026-04-30 21:31 | 52.21032 | 4.80567 | 2565 ft | 221 kts | 173° |
| 2026-04-30 21:32 | 52.17741 | 4.80262 | 3106 ft | 252 kts | 181° |
| 2026-04-30 21:32 | 52.15940 | 4.80003 | 3442 ft | 264 kts | 181° |
| 2026-04-30 21:32 | 52.14102 | 4.79736 | 3947 ft | 268 kts | 181° |
| 2026-04-30 21:32 | 52.12247 | 4.79469 | 4504 ft | 271 kts | 181° |
| 2026-04-30 21:33 | 52.10371 | 4.79201 | 5053 ft | 274 kts | 181° |
| 2026-04-30 21:33 | 52.06529 | 4.78660 | 6167 ft | 281 kts | 181° |
| 2026-04-30 21:33 | 52.04567 | 4.78387 | 6698 ft | 284 kts | 181° |
| 2026-04-30 21:34 | 52.02598 | 4.78112 | 7223 ft | 287 kts | 181° |
| 2026-04-30 21:34 | 51.98576 | 4.77553 | 8267 ft | 293 kts | 181° |
| 2026-04-30 21:34 | 51.96547 | 4.77272 | 8764 ft | 296 kts | 181° |
| 2026-04-30 21:35 | 51.94490 | 4.76985 | 9267 ft | 299 kts | 182° |
| 2026-04-30 21:35 | 51.92413 | 4.76382 | 9753 ft | 305 kts | 193° |
| 2026-04-30 21:35 | 51.90414 | 4.75179 | 10237 ft | 311 kts | 201° |
| 2026-04-30 21:35 | 51.88472 | 4.73683 | 10709 ft | 314 kts | 202° |
| 2026-04-30 21:36 | 51.86481 | 4.72108 | 11028 ft | 323 kts | 203° |
| 2026-04-30 21:36 | 51.84422 | 4.70483 | 11224 ft | 334 kts | 203° |
| 2026-04-30 21:37 | 51.77825 | 4.65321 | 11865 ft | 368 kts | 203° |
| 2026-04-30 21:37 | 51.75483 | 4.63497 | 12090 ft | 379 kts | 203° |
| 2026-04-30 21:37 | 51.73085 | 4.61632 | 12504 ft | 383 kts | 203° |
| 2026-04-30 21:37 | 51.70679 | 4.59762 | 12991 ft | 385 kts | 203° |
| 2026-04-30 21:38 | 51.68258 | 4.57886 | 13465 ft | 388 kts | 203° |
| 2026-04-30 21:38 | 51.65824 | 4.56002 | 13910 ft | 391 kts | 203° |
| 2026-04-30 21:38 | 51.63370 | 4.54109 | 14356 ft | 394 kts | 203° |
| 2026-04-30 21:38 | 51.60893 | 4.52198 | 14816 ft | 396 kts | 203° |
| 2026-04-30 21:39 | 51.58431 | 4.50302 | 15267 ft | 398 kts | 203° |
| 2026-04-30 21:39 | 51.55929 | 4.48378 | 15669 ft | 401 kts | 203° |
| 2026-04-30 21:39 | 51.53387 | 4.46425 | 16102 ft | 403 kts | 203° |
| 2026-04-30 21:39 | 51.50877 | 4.44500 | 16500 ft | 405 kts | 203° |
| 2026-04-30 21:40 | 51.48326 | 4.42546 | 16899 ft | 408 kts | 203° |
| 2026-04-30 21:40 | 51.45760 | 4.40582 | 17236 ft | 410 kts | 203° |
| 2026-04-30 21:40 | 51.43167 | 4.38600 | 17288 ft | 410 kts | 203° |
| 2026-04-30 21:40 | 51.40624 | 4.36658 | 17294 ft | 409 kts | 203° |
| 2026-04-30 21:41 | 51.38052 | 4.34698 | 17295 ft | 409 kts | 202° |
| 2026-04-30 21:41 | 51.35474 | 4.32739 | 17295 ft | 408 kts | 202° |
| 2026-04-30 21:41 | 51.32917 | 4.30797 | 17297 ft | 408 kts | 202° |
| 2026-04-30 21:41 | 51.30355 | 4.28852 | 17296 ft | 408 kts | 202° |
| 2026-04-30 21:42 | 51.27763 | 4.26883 | 17297 ft | 408 kts | 202° |
| 2026-04-30 21:42 | 51.25201 | 4.24939 | 17287 ft | 408 kts | 202° |
| 2026-04-30 21:42 | 51.22660 | 4.23016 | 17327 ft | 409 kts | 202° |
| 2026-04-30 21:42 | 51.20054 | 4.21234 | 17292 ft | 406 kts | 192° |
| 2026-04-30 21:43 | 51.17294 | 4.20823 | 17267 ft | 399 kts | 172° |
| 2026-04-30 21:43 | 51.14608 | 4.21921 | 17264 ft | 394 kts | 153° |
| 2026-04-30 21:43 | 51.12340 | 4.24258 | 17278 ft | 391 kts | 137° |
| 2026-04-30 21:43 | 51.10354 | 4.27213 | 17299 ft | 391 kts | 136° |
| 2026-04-30 21:44 | 51.08353 | 4.30118 | 17297 ft | 391 kts | 136° |
| 2026-04-30 21:44 | 51.06327 | 4.33031 | 17291 ft | 391 kts | 136° |
| 2026-04-30 21:44 | 51.04324 | 4.35905 | 17291 ft | 391 kts | 136° |
| 2026-04-30 21:44 | 51.02321 | 4.38776 | 17289 ft | 391 kts | 136° |
| 2026-04-30 21:45 | 51.00295 | 4.41679 | 17288 ft | 390 kts | 136° |
| 2026-04-30 21:45 | 50.98283 | 4.44560 | 17286 ft | 390 kts | 136° |
| 2026-04-30 21:45 | 50.96278 | 4.47428 | 17286 ft | 390 kts | 136° |
| 2026-04-30 21:45 | 50.94263 | 4.50305 | 17287 ft | 390 kts | 136° |
| 2026-04-30 21:46 | 50.92248 | 4.53181 | 17286 ft | 390 kts | 136° |
| 2026-04-30 21:46 | 50.90232 | 4.56055 | 17275 ft | 390 kts | 136° |
| 2026-04-30 21:46 | 50.88186 | 4.58967 | 17279 ft | 390 kts | 136° |
| 2026-04-30 21:46 | 50.86168 | 4.61835 | 17282 ft | 391 kts | 136° |
| 2026-04-30 21:47 | 50.84145 | 4.64708 | 17303 ft | 391 kts | 136° |
| 2026-04-30 21:47 | 50.82118 | 4.67582 | 17269 ft | 391 kts | 137° |
| 2026-04-30 21:47 | 50.80081 | 4.70467 | 17279 ft | 391 kts | 137° |
| 2026-04-30 21:47 | 50.78067 | 4.73315 | 17279 ft | 388 kts | 137° |
| 2026-04-30 21:48 | 50.76241 | 4.76284 | 17264 ft | 371 kts | 125° |
| 2026-04-30 21:48 | 50.75003 | 4.79753 | 17329 ft | 355 kts | 111° |
| 2026-04-30 21:48 | 50.74341 | 4.83371 | 17308 ft | 341 kts | 103° |
| 2026-04-30 21:48 | 50.73848 | 4.86994 | 17306 ft | 327 kts | 102° |
| 2026-04-30 21:49 | 50.73386 | 4.90391 | 17217 ft | 316 kts | 102° |
| 2026-04-30 21:49 | 50.72925 | 4.93762 | 16934 ft | 311 kts | 103° |
| 2026-04-30 21:49 | 50.72463 | 4.97106 | 16650 ft | 306 kts | 102° |
| 2026-04-30 21:49 | 50.72019 | 5.00309 | 16402 ft | 300 kts | 103° |
| 2026-04-30 21:50 | 50.71569 | 5.03536 | 16138 ft | 295 kts | 103° |
| 2026-04-30 21:50 | 50.71133 | 5.06655 | 15870 ft | 294 kts | 103° |
| 2026-04-30 21:50 | 50.70689 | 5.09821 | 15483 ft | 294 kts | 103° |
| 2026-04-30 21:50 | 50.70246 | 5.12970 | 15082 ft | 294 kts | 102° |
| 2026-04-30 21:51 | 50.69805 | 5.16097 | 14584 ft | 294 kts | 102° |
| 2026-04-30 21:51 | 50.69364 | 5.19233 | 14313 ft | 290 kts | 103° |
| 2026-04-30 21:51 | 50.68930 | 5.22296 | 14005 ft | 285 kts | 103° |
| 2026-04-30 21:51 | 50.68499 | 5.25338 | 13622 ft | 281 kts | 103° |
| 2026-04-30 21:52 | 50.68076 | 5.28313 | 13138 ft | 276 kts | 103° |
| 2026-04-30 21:52 | 50.67659 | 5.31236 | 12693 ft | 271 kts | 103° |
| 2026-04-30 21:52 | 50.67252 | 5.34093 | 12238 ft | 266 kts | 103° |
| 2026-04-30 21:52 | 50.66850 | 5.36908 | 11862 ft | 260 kts | 103° |
| 2026-04-30 21:53 | 50.66459 | 5.39639 | 11554 ft | 256 kts | 103° |
| 2026-04-30 21:53 | 50.65939 | 5.42272 | 11229 ft | 252 kts | 122° |
| 2026-04-30 21:53 | 50.64768 | 5.44307 | 10862 ft | 252 kts | 145° |
| 2026-04-30 21:53 | 50.63161 | 5.45391 | 10404 ft | 254 kts | 168° |
| 2026-04-30 21:54 | 50.61396 | 5.45357 | 9942 ft | 258 kts | 191° |
| 2026-04-30 21:54 | 50.59683 | 5.44642 | 9479 ft | 257 kts | 191° |
| 2026-04-30 21:54 | 50.57975 | 5.43913 | 9019 ft | 255 kts | 190° |
| 2026-04-30 21:54 | 50.56263 | 5.43195 | 8557 ft | 252 kts | 190° |
| 2026-04-30 21:55 | 50.54579 | 5.42490 | 8197 ft | 248 kts | 189° |
| 2026-04-30 21:55 | 50.52929 | 5.41805 | 7753 ft | 248 kts | 189° |
| 2026-04-30 21:55 | 50.51269 | 5.41115 | 7324 ft | 245 kts | 189° |
| 2026-04-30 21:55 | 50.49642 | 5.40437 | 7035 ft | 239 kts | 189° |
| 2026-04-30 21:56 | 50.48055 | 5.39765 | 6726 ft | 234 kts | 192° |
| 2026-04-30 21:56 | 50.46577 | 5.38674 | 6376 ft | 236 kts | 208° |
| 2026-04-30 21:56 | 50.45316 | 5.37033 | 5953 ft | 241 kts | 218° |
| 2026-04-30 21:56 | 50.44132 | 5.35183 | 5533 ft | 241 kts | 219° |
| 2026-04-30 21:57 | 50.43097 | 5.33118 | 5104 ft | 248 kts | 242° |
| 2026-04-30 21:57 | 50.42774 | 5.30449 | 4670 ft | 250 kts | 272° |
| 2026-04-30 21:57 | 50.43279 | 5.27892 | 4310 ft | 248 kts | 302° |
| 2026-04-30 21:57 | 50.44389 | 5.25871 | 3975 ft | 244 kts | 317° |
| 2026-04-30 21:58 | 50.45627 | 5.24057 | 3639 ft | 242 kts | 319° |
| 2026-04-30 21:58 | 50.46938 | 5.22483 | 3252 ft | 233 kts | 341° |
| 2026-04-30 21:58 | 50.48449 | 5.21994 | 3007 ft | 220 kts | 12° |
| 2026-04-30 21:58 | 50.49844 | 5.22720 | 3007 ft | 205 kts | 41° |
| 2026-04-30 21:59 | 50.50934 | 5.24077 | 3007 ft | 198 kts | 51° |
| 2026-04-30 21:59 | 50.51928 | 5.25582 | 2997 ft | 198 kts | 53° |
| 2026-04-30 21:59 | 50.52880 | 5.27101 | 2999 ft | 197 kts | 54° |
| 2026-04-30 22:00 | 50.54788 | 5.30167 | 2883 ft | 191 kts | 54° |
| 2026-04-30 22:00 | 50.56623 | 5.33092 | 2375 ft | 187 kts | 52° |
| 2026-04-30 22:00 | 50.57541 | 5.34552 | 2121 ft | 187 kts | 52° |
| 2026-04-30 22:01 | 50.58443 | 5.35989 | 1884 ft | 186 kts | 52° |
| 2026-04-30 22:01 | 50.59365 | 5.37453 | 1634 ft | 186 kts | 52° |
| 2026-04-30 22:01 | 50.60281 | 5.38888 | 1395 ft | 185 kts | 51° |
| 2026-04-30 22:01 | 50.61177 | 5.40324 | 1131 ft | 185 kts | 48° |
| 2026-04-30 22:02 | 50.62077 | 5.41763 | 884 ft | 185 kts | 46° |
| 2026-04-30 22:02 | 50.62973 | 5.43198 | 660 ft | 182 kts | 44° |
| 2026-04-30 22:02 | 50.63747 | 5.44432 | 608 ft | 116 kts | 43° |
| 2026-04-30 22:02 | 50.64122 | 5.45021 | 598 ft | 56 kts | 45° |
| 2026-04-30 22:03 | 50.64325 | 5.45337 | 596 ft | 26 kts | 45° |
| 2026-04-30 22:03 | 50.64385 | 5.45461 | 599 ft | 11 kts | 76° |
| 2026-04-30 22:03 | 50.64389 | 5.45581 | 601 ft | 10 kts | 90° |
| 2026-04-30 22:03 | 50.64384 | 5.45679 | 604 ft | 7 kts | 111° |
| 2026-04-30 22:04 | 50.64354 | 5.45722 | 607 ft | 4 kts | 143° |
| 2026-04-30 22:04 | 50.64336 | 5.45748 | 608 ft | 0 kts | 135° |